Results by/Résultats par Info:(613) 673-4909


                                         K-TOWN TRIATHLON

                                     Sunday August 1st, 1999
                              Confederation Park, Kingston, Ontario

                                  Long Course Triathlon Results

 -----FINAL------ ----------------------- ------------ -------------- ----           2km                           56.5km                       15km
                                                       Category            ----------SWIM---------  ----- ----------BIKE--------  ----- ---------RUN----------
   Pos     Time   Name                    City         Plc/Total        #   Cat   Ovr  Time  /100m  Tr 1  Cat Ovr Time    km/hr   Tr 2  Cat  Ovr  Time    km
 ------  -------- ----------------------- ------------ -------------- ---- -----------------------  ----- ----------------------  ----- ----------------------
    1     2:46:48 Jamie CLEVELAND         Kingston      1/5   MElite   10  1      1   28:14  1:25    0:41 1      1 1:23:53 40.4    0:30 2      2   53:32  3:35 
    2     2:50:52 Jeff KRAR               Hamilton      2/5   MElite   11  3      3   30:57  1:33    0:48 2      2 1:25:23 39.7    0:42 1      1   53:04  3:33 
    3     2:53:57 David CLARK             Korora        3/5   MElite   13  2      2   30:07  1:31    0:49 3      3 1:26:13 39.3    0:30 3      3   56:20  3:46 
    4     3:01:40 Tim BLACKWELL           Kingston      4/5   MElite    5  5     27   36:52  1:51    0:44 4      4 1:26:17 39.3    0:57 5      5   56:52  3:48 
    5     3:03:31 Marc PELLETIER          Ottawa        1/22  M35-39  155  1     11   34:23  1:44    1:20 1      5 1:27:30 38.8    0:37 1      6   59:43  3:59 
    6     3:04:54 Clive MORGAN            Yarker        1/17  M40-44   55  1      4   31:41  1:36    0:40 1     11 1:30:10 37.6    0:28 1      9 1:01:56  4:08 
    7     3:08:23 Eric VIRKLER            Lowville      1/16  M30-34  120  2     10   34:13  1:43    1:32 2      7 1:28:45 38.2    0:58 2     13 1:02:57  4:12 
    8     3:08:54 Gord MCLAUGHLIN         Lyn           1/8   M45-49   87  1      6   31:58  1:36    0:53 1     21 1:33:07 36.4    1:02 1     10 1:01:56  4:08 
    9     3:09:18 Noel HARRINGTON         Guelph        5/5   MElite    8  4      8   32:51  1:39    1:09 5     38 1:37:24 34.8    1:17 4      4   56:38  3:47 
   10     3:10:30 Chris MILBURN           Kingston      2/16  M30-34  123  6     44   39:52  2:00    1:02 1      6 1:27:57 38.6    0:44 1      8 1:00:57  4:04 
   11     3:10:40 Julie CURWIN            Kingston      1/3   WElite    2  1     12   34:27  1:44    0:55 1     16 1:31:59 36.9    0:42 1     12 1:02:39  4:11 
   12     3:12:35 Mark RYAN               Kingston      2/22  M35-39  253  5     18   36:04  1:49    0:59 8     27 1:34:40 35.8    1:05 2      7   59:49  4:00 
   13     3:14:49 Steven BLOSTEIN         Kingston      3/22  M35-39   29  2     13   35:45  1:48    1:41 4     17 1:32:15 36.8    1:01 4     16 1:04:10  4:17 
   14     3:15:02 Patrick TURNER          Kingston      4/22  M35-39  369  3     14   35:51  1:48    1:41 7     24 1:33:40 36.2    1:23 3     11 1:02:28  4:10 
   15     3:15:14 Peter DOYLE             Toronto       5/22  M35-39  100  7     40   39:31  1:59    0:57 2     10 1:29:22 37.9    0:50 6     19 1:04:36  4:19 
   16     3:16:17 Ka-Yu LAW               Kingston      1/11  M25-29  127  1     19   36:08  1:49    0:56 2      9 1:29:18 38.0    0:47 5     32 1:09:08  4:37 
   17     3:17:06 Lynne BERMEL            Ottawa        2/3   WElite    3  2     22   36:26  1:50    1:01 2     25 1:33:54 36.1    0:34 2     22 1:05:13  4:21 
   18     3:17:33 Matt TAKACH             Kanata        1/1   M19&-   212  1      5   31:54  1:36    1:25 1     29 1:34:55 35.7    1:06 1     28 1:08:16  4:34 
   19     3:18:03 Devashish PAUL          Kanata        3/16  M30-34  356  4     35   39:08  1:58    1:14 5     20 1:32:46 36.5    1:15 3     15 1:03:42  4:15 
   20     3:19:01 Jason MACLAREN          Collingwood   2/11  M25-29  382  9     64   42:44  2:09    1:04 1      8 1:28:53 38.1    1:12 3     21 1:05:09  4:21 
   21     3:19:01 Chad ALDERSON           Burlington    3/11  M25-29  401  2     24   36:31  1:50    1:10 4     26 1:34:04 36.0    0:58 4     24 1:06:20  4:26 
   22     3:19:37 Robert LADEROUTE        RR#3 Carp     2/17  M40-44  193  2     16   36:01  1:49    1:11 2     13 1:30:44 37.4    1:25 3     36 1:10:18  4:42 
   23     3:19:41 J.P. DECOUVREUR         Stouffville   6/22  M35-39  360  9     52   40:54  2:03    2:09 3     15 1:31:21 37.1    0:59 5     17 1:04:19  4:18 
   24     3:22:20 Stephane DUBOIS         Kingston      4/16  M30-34   48  3     23   36:29  1:50    1:15 3     12 1:30:17 37.6    0:49 7     46 1:13:31  4:55 
   25     3:23:27 Chris HUET              Caledon East  3/3   WElite    9  3     32   37:53  1:54    1:08 3     41 1:38:08 34.6    0:39 3     23 1:05:42  4:23 
   26     3:23:29 Stephen HINTON          Kingston      3/17  M40-44   63  4     31   37:51  1:54    1:06 3     31 1:35:22 35.5    1:06 2     27 1:08:06  4:33 
   27     3:23:56 Doug LIVERSIDGE         Aurora        5/16  M30-34  425  5     39   39:25  1:59    1:28 4     14 1:31:11 37.2    1:54 5     35 1:09:58  4:40 
   28     3:24:08 Graeme SMITH            Kingston      7/22  M35-39  199  6     28   37:15  1:52    0:58 5     18 1:32:26 36.7    0:54 8     44 1:12:37  4:51 
   29     3:24:20 Bruce BURNS             Nepean        2/8   M45-49   71  3     36   39:12  1:58    1:55 3     37 1:37:13 34.9    0:53 2     20 1:05:09  4:21 
   30     3:24:25 Nikolas GIZDIC          Kingston      4/11  M25-29  252  10    67   42:56  2:09    1:22 5     30 1:35:14 35.6    1:20 1     14 1:03:35  4:15 
   31     3:26:34 Gary TRANMER            Kingston      3/8   M45-49  198  4     38   39:25  1:59    1:22 2     35 1:36:04 35.3    1:02 3     30 1:08:42  4:35 
   32     3:27:09 Scott LANGLEY           Ottawa        5/11  M25-29   98  6     33   37:56  1:54    2:05 3     22 1:33:37 36.2    1:50 7     40 1:11:43  4:47 
   33     3:27:45 Sandy SCHWAB            Kingston      6/16  M30-34  181  1      9   34:03  1:43    1:08 6     23 1:33:38 36.2    0:57 9     56 1:18:02  5:13 
   34     3:28:48 Norman O'REILLY         Ottawa        6/11  M25-29  364  5     30   37:45  1:54    1:24 6     33 1:35:31 35.5    1:18 8     45 1:12:51  4:52 
   35     3:29:23 Jennifer CONDFLOWER     Sault Ste Ma  1/5   W25-29  384  2     56   42:02  2:07    1:47 1     32 1:35:24 35.5    1:13 1     31 1:08:59  4:36 
   36     3:29:30 Chris GREGORY           Kanata        7/11  M25-29  354  3     25   36:47  1:51    2:17 7     42 1:38:55 34.3    1:44 6     34 1:09:49  4:40 
   37     3:30:50 Eric CLARK              Kingston      8/11  M25-29  179  4     29   37:34  1:53    1:30 8     62 1:44:59 32.3    2:26 2     18 1:04:23  4:18 
   38     3:33:21 Jennifer CAMPBELL       Montreal      1/3   W20-24  400  1      7   31:58  1:36    0:56 1     58 1:43:56 32.6    0:59 2     48 1:15:34  5:03 
   39 CL  3:33:31 Bill BUDGELL            Mississauga   7/16  M30-34  297  8     69   43:00  2:09    1:41 7     28 1:34:47 35.8    1:34 6     43 1:12:31  4:51 
   40     3:34:30 Shelley MCKAY           Gloucester    1/5   W30-34  421  4     68   42:58  2:09    1:40 1     36 1:36:40 35.1    1:14 1     41 1:12:00  4:48 
   41     3:35:10 Emily SINCLAIR          Kingston      2/3   W20-24  128  2     20   36:12  1:49    0:54 2     66 1:45:38 32.1    0:56 1     39 1:11:33  4:47 
   42 CL  3:35:52 Dale JANISSE            Carlsbad Spr  8/22  M35-39  146  8     47   39:54  2:00    1:52 6     19 1:32:30 36.7    1:04 13    66 1:20:33  5:23 
   43     3:37:22 John LESARGE            Kingston      4/17  M40-44  167  8     59   42:15  2:07    2:08 4     34 1:35:54 35.4    1:05 5     50 1:16:02  5:05 
   44     3:38:19 Karen HOFFMAN           Toronto       1/3   W40-44   35  1     62   42:34  2:08    2:28 1     59 1:44:01 32.6    1:17 1     25 1:08:01  4:33 
   45     3:39:06 Nadine CARON            Kingston      2/5   W25-29  371  3     57   42:06  2:07    1:25 3     56 1:43:47 32.7    1:28 3     37 1:10:22  4:42 
   46     3:40:51 Monty PAISLEY           Ottawa        9/22  M35-39  157  13    78   46:22  2:20    3:10 11    48 1:40:56 33.6    2:02 7     29 1:08:23  4:34 
   47     3:41:24 Julia KISILEWICH        toronto       3/5   W25-29  393  1     41   39:32  1:59    2:05 2     53 1:41:42 33.3    2:13 4     49 1:15:54  5:04 
   48     3:41:31 Jody MILLER             Toronto       1/7   W35-39   36  1     49   40:20  2:01    1:36 2     68 1:45:56 32.0    1:11 1     42 1:12:30  4:50 
   49     3:42:30 Erin DOWN               Ottawa        4/5   W25-29  147  4     61   42:32  2:08    1:57 4     72 1:46:53 31.7    1:24 2     33 1:09:45  4:39 
   50     3:43:03 Joe FABBRI              Randolph      5/17  M40-44   65  10    73   45:08  2:16    1:04 10    64 1:45:20 32.2    0:57 4     38 1:10:37  4:43 
   51     3:44:23 David SLY               Kingston      8/16  M30-34  270  9     70   43:43  2:12    3:00 8     39 1:37:48 34.7    2:11 8     55 1:17:43  5:11 
   52     3:45:15 Monique GIROUX          Gloucester    2/5   W30-34  314  2     34   39:05  1:58    1:34 2     63 1:45:02 32.3    1:08 2     59 1:18:27  5:14 
   53     3:46:26 Tom SIMPER              Glouster      4/8   M45-49   74  5     42   39:37  1:59    2:26 4     71 1:46:49 31.7    1:24 5     51 1:16:12  5:05 
   54     3:47:44 Etienne RANCOURT        Kingston      1/2   M20-24  173  1     45   39:52  2:00    1:40 1     46 1:40:26 33.8    1:37 1     77 1:24:10  5:37 
   55     3:47:51 Rod CAMPBELL            Mississauga   1/5   M50-54  418  3     55   41:47  2:06    2:13 1     40 1:37:55 34.6    2:16 1     75 1:23:41  5:35 
   56     3:48:09 Stuart JONES            Kingston      9/16  M30-34  190  7     46   39:53  2:00    1:32 9     43 1:39:53 33.9    1:31 12    82 1:25:22  5:42 
   57     3:48:35 Terry O'BRIEN           Kingston      5/8   M45-49  275  2     17   36:03  1:49    1:53 5     73 1:47:47 31.5    2:40 7     65 1:20:14  5:21 
   58     3:49:39 Voyzel LEE              Ottawa       10/22  M35-39  303  14    79   47:28  2:23    2:56 10    47 1:40:40 33.7    1:37 10    53 1:17:01  5:09 
   59     3:49:46 Marc CRETIEN            Kingston      9/11  M25-29   39  8     51   40:50  2:03    2:15 9     67 1:45:51 32.0    1:27 9     64 1:19:25  5:18 
   60     3:49:53 Rick BAIRD              Ottawa        6/17  M40-44  265  7     58   42:06  2:07    2:02 11    65 1:45:37 32.1    1:57 6     57 1:18:13  5:13 
   61     3:50:12 Ken CORNELIUS           Oshawa       11/22  M35-39  417  11    72   44:27  2:14    1:28 12    60 1:44:12 32.5    1:54 12    58 1:18:14  5:13 
   62     3:50:15 Peter JURYN             Nepean        7/17  M40-44   21  9     66   42:47  2:09    1:52 6     51 1:41:09 33.5    1:44 11    72 1:22:44  5:31 
   63 CL  3:50:40 Guy ARMSTRONG           Barrie        8/17  M40-44  339  3     26   36:50  1:51    2:43 5     49 1:40:58 33.6    2:41 15    88 1:27:30  5:50 
   64     3:51:14 Sharon INGLE            Missisauga    2/7   W35-39  419  2     63   42:39  2:08    1:43 1     52 1:41:41 33.3    1:25 2     76 1:23:48  5:36 
   65     3:52:50 Tim BARBER              Ottawa       12/22  M35-39  365  17    86   50:10  2:31    2:30 9     45 1:40:11 33.8    2:20 11    54 1:17:42  5:11 
   66     3:57:25 Tim BECHARD             Aylmer       10/16  M30-34  260  14   113 1:00:11  3:01    3:20 10    50 1:41:07 33.5    4:46 4     26 1:08:03  4:33 
   67     3:57:34 Louis CYR               Kingston      9/17  M40-44  276  6     50   40:38  2:02    1:51 14    89 1:54:21 29.7    1:24 8     63 1:19:22  5:18 
   68     3:57:35 Catherine BRIDGES       Ottawa        3/5   W30-34   99  1     21   36:20  1:49    2:03 3     84 1:52:23 30.2    1:01 3     84 1:25:51  5:44 
   69     3:57:38 Mark MANNERING          Toronto      10/17  M40-44   50  13    87   50:37  2:32    2:30 9     57 1:43:53 32.6    2:09 7     60 1:18:31  5:15 
   70     3:58:38 John YENDT              Kingston     11/17  M40-44  395  11    80   47:29  2:23    2:35 7     54 1:41:57 33.3    1:46 14    80 1:24:53  5:40 
   71     3:58:54 Fred TOPHAM             Kingston     13/22  M35-39  188  16    85   49:50  2:30    2:51 13    77 1:49:06 31.1    0:55 9     52 1:16:13  5:05 
   72     4:02:36 Tom COLLINS             London        1/6   M60 +    51  2     90   50:43  2:33    1:43 1     44 1:40:06 33.9    1:13 2     92 1:28:54  5:56 
   73     4:02:52 Raymond VALERI          Cuba         14/22  M35-39  204  12    74   45:08  2:16    2:47 16    83 1:51:25 30.4    2:15 14    69 1:21:19  5:26 
   74     4:03:17 Alex ROBERTON           Ottawa       10/11  M25-29  335  7     37   39:23  1:59    3:23 10    74 1:47:55 31.4    3:38 10    94 1:29:01  5:57 
   75     4:03:56 Ron LIVERSIDGE          Bolton       11/16  M30-34  102  10    71   44:15  2:13    3:10 11    70 1:46:34 31.8    2:12 14    90 1:27:47  5:52 
   76     4:04:01 David J. MASKELL        Calgary      12/17  M40-44   22  12    84   48:52  2:27    1:29 12    78 1:49:14 31.0    1:00 12    74 1:23:28  5:34 
   77     4:04:39 Daniel LAPOINTE         Laval         6/8   M45-49  122  6     83   48:48  2:27    2:07 7     86 1:53:51 29.8    1:16 6     61 1:18:39  5:15 
   78     4:05:11 Morris O'CALLAGHAN      Ottawa        2/5   M50-54   49  1     43   39:39  1:59    3:36 4     85 1:53:32 29.9    1:58 3     86 1:26:28  5:46 
   79     4:06:17 David ANDREW            Kingston      7/8   M45-49   64  7    106   56:47  2:51    2:35 6     82 1:50:40 30.6    1:21 4     47 1:14:54  5:00 
   80     4:07:28 Michael GILES           Nepean       13/17  M40-44   96  14    88   50:39  2:32    3:00 13    81 1:49:56 30.8    1:18 10    71 1:22:37  5:31 
   81     4:08:04 Scott O'CONNOR          Kingston     12/16  M30-34  372  11    77   46:20  2:19    3:32 12    93 1:54:50 29.5    2:30 10    68 1:20:54  5:24 
   82     4:08:51 Ron WILLIAMS            Collingwood   2/6   M60 +   327  1     75   45:39  2:17    2:44 2     76 1:48:15 31.3    2:15 3     96 1:30:00  6:00 
   83     4:10:34 Rose HIETKAMP           Belleville    5/5   W25-29  206  5     65   42:46  2:09    2:07 5     94 1:54:57 29.5    2:04 5     91 1:28:41  5:55 
   84 CL  4:13:59 Scott SINCLAIR          Scarborough  15/22  M35-39  333  15    81   47:32  2:23    2:38 14    79 1:49:24 31.0    2:38 19   101 1:31:50  6:08 
   85     4:15:02 David TINSLEY           Manotick     14/17  M40-44  332  5     48   40:02  2:01    3:35 16   114 2:06:50 26.7    4:03 9     67 1:20:34  5:23 
   86 CL  4:15:42 Denis MOREL             Hartington   16/22  M35-39   89  19   101   54:55  2:45    4:15 15    80 1:49:56 30.8    2:18 16    78 1:24:21  5:38 
   87     4:15:43 Trevor VOWLES           Kingston      3/5   M50-54  271  4    107   57:26  2:53    1:41 3     75 1:48:09 31.4    1:25 4     87 1:27:02  5:49 
   88     4:16:04 Dave WHITLOCK           Scarborough   4/5   M50-54  241  5    114 1:01:06  3:04    3:03 2     61 1:44:18 32.5    2:01 2     83 1:25:38  5:43 
   89     4:16:28 Deborah STEACY-CANTLAY  Kingston      2/3   W40-44   47  3    102   56:18  2:49    1:18 2     69 1:46:10 31.9    1:21 2     99 1:31:23  6:06 
   90     4:17:28 Clive RANDEWICH         Toronto       1/2   M55-59  334  2    111   58:45  2:57    2:44 1     96 1:55:26 29.4    1:34 1     62 1:19:00  5:16 
   91 CL  4:19:04 Ken SCHACHNOW           Ottawa       17/22  M35-39  187  18    89   50:43  2:33    2:35 17    90 1:54:29 29.6    1:45 17    95 1:29:34  5:59 
   92     4:20:04 Helen BUTT              Scarborough   3/3   W20-24  420  3     96   52:25  2:38    2:35 3     88 1:54:19 29.7    1:52 3     93 1:28:55  5:56 
   93     4:20:57 Ann CHAPMAN             Lyn           3/7   W35-39  126  3     82   48:47  2:27    2:50 4     92 1:54:38 29.6    1:10 4    104 1:33:34  6:15 
   94     4:21:04 Bruno BARRETTE          Lunenburg    15/17  M40-44   82  16   110   58:17  2:55    2:07 8     55 1:43:15 32.8    2:42 17   106 1:34:45  6:19 
   95     4:22:38 James SWINNERTON        Brampton     13/16  M30-34  149  13    99   53:53  2:42    2:20 14   102 1:58:46 28.5    1:21 13    85 1:26:20  5:46 
   96     4:23:18 Klaris BOYSEN           Toronto       3/6   M60 +   294  3     94   51:51  2:36    3:23 3    101 1:57:38 28.8    5:32 1     81 1:24:56  5:40 
   97     4:23:55 Oscar SANCHEZ           Brampton     14/16  M30-34  355  15   115 1:01:17  3:04    1:38 13    97 1:56:18 29.2    1:30 11    73 1:23:14  5:33 
   98     4:25:10 William R. GREER        Perth        16/17  M40-44  293  15    98   53:26  2:41    2:58 15   105 2:01:00 28.0    2:57 13    79 1:24:51  5:40 
   99     4:26:18 Jim ENGLISH             Ottawa        2/2   M55-59  403  1     76   46:10  2:19    3:03 2    107 2:02:51 27.6    2:36 2    100 1:31:40  6:07 
  100     4:28:06 James ALEXANDER         Kingston     18/22  M35-39  224  10    60   42:31  2:08    3:45 18    95 1:54:58 29.5    3:46 20   111 1:43:09  6:53 
  101     4:28:14 Michael ROYTBERG        North York    2/2   M20-24  259  2     97   53:07  2:40    2:40 2    109 2:04:06 27.3    0:42 2     89 1:27:41  5:51 
  102     4:29:34 Stephanie HOLTZMAN      Toronto       4/5   W30-34   67  3     54   41:37  2:05    2:36 5    111 2:04:49 27.2    1:47 4    109 1:38:48  6:36 
  103     4:30:24 Sheila SPENCE           Perth         3/3   W40-44  116  2     92   51:25  2:35    2:27 3    104 2:00:36 28.1    1:58 3    105 1:34:00  6:16 
  104     4:31:12 Sean RYAN               Kingston     19/22  M35-39  107  20   103   56:29  2:50    3:40 21   113 2:06:36 26.8    2:31 15    70 1:21:58  5:28 
  105     4:33:10 Gillian JOHNSTON        Toronto       4/7   W35-39   92  6    120 1:02:16  3:07    4:06 3     87 1:53:54 29.8    1:57 3     97 1:31:00  6:04 
  106     4:33:38 John Paul FRARESSO      Kingston      5/5   M50-54   83  2     53   41:29  2:05    2:56 5     98 1:56:35 29.1    2:06 5    114 1:50:34  7:23 
  107 CL  4:39:59 Steve BRUNDLE           Kitchener    20/22  M35-39  340  22   116 1:01:29  3:05    6:06 20   100 1:57:19 28.9    4:02 18    98 1:31:06  6:05 
  108     4:46:24 Bob LAFLEUR             Perth         8/8   M45-49  268  8    109   57:36  2:53    3:37 8    110 2:04:30 27.2    2:28 8    108 1:38:15  6:33 
  109     4:48:10 Sandra BLICKSTEAD       Orleans       5/7   W35-39  138  4     95   52:09  2:37    4:26 5    108 2:04:01 27.3    3:59 6    112 1:43:38  6:55 
  110     4:49:17 Karen RUSSELL           Warkworth     6/7   W35-39  349  5    104   56:36  2:50    2:58 6    115 2:07:06 26.7    1:47 5    110 1:40:52  6:44 
  111     4:51:24 Arthur HEINMAA          North York   21/22  M35-39  317  21   108   57:32  2:53    2:41 19    99 1:57:18 28.9    2:01 21   115 1:51:54  7:28 
  112     4:56:12 Robert MCCALDON         Hartington    4/6   M60 +   125  6    117 1:01:51  3:06    3:48 6    119 2:15:02 25.1    3:13 4    102 1:32:20  6:10 
  113     4:56:12 Ron HACKETT             Kingston     17/17  M40-44  255  17   118 1:01:51  3:06    3:48 17   118 2:15:02 25.1    3:13 16   103 1:32:20  6:10 
  114     5:00:59 Arthur TATEISHI         Toronto      11/11  M25-29  295  11   112   59:41  3:00    5:14 11    91 1:54:37 29.6    3:25 11   117 1:58:03  7:53 
  115     5:01:54 Mick SBERT              Etobicoke    15/16  M30-34  233  16   119 1:01:54  3:06    5:55 15   117 2:14:49 25.1    4:31 15   107 1:34:47  6:20 
  116     5:09:47 Jane MCCALDON           Hartington    1/1   W60 +   136  1    121 1:05:04  3:16    2:15 1    106 2:02:14 27.7    2:35 1    116 1:57:42  7:51 
  117     5:14:26 Mark SPIES              Jasper       16/16  M30-34   81  12    93   51:40  2:35    3:59 16   120 2:16:06 24.9    4:07 16   118 1:58:36  7:55 
  118     5:14:26 David MASKELL           Hartington    5/6   M60 +    27  4    100   54:36  2:44    5:10 4    112 2:05:35 27.0    3:28 6    120 2:05:39  8:23 
  119     5:17:10 Max SHAFIR              Toronto       6/6   M60 +    93  5    105   56:40  2:50    4:04 5    116 2:12:52 25.5    2:29 5    119 2:01:06  8:05 
  120     5:24:07 Joyce HOSTYN            Kingston      7/7   W35-39  135  7    122 1:06:13  3:19    2:43 7    121 2:23:30 23.6    3:11 7    113 1:48:32  7:15 
  121 DNF         LeeAnne DAY             Ottawa        5/5   W30-34  431  5     91   50:59  2:33    2:12 4    103 1:59:51 28.3    1:36                        
  122 DNF         Carl WEBER              Kingston     22/22  M35-39  357  4     15   35:52  1:48    1:05